sensor_id;sensor_type;location;lat;lon;timestamp;P1;durP1;ratioP1;P2;durP2;ratioP2
43124;SDS011;49182;50.788;7.318;2022-07-25T00:02:20;9.93;;;6.22;;
43124;SDS011;49182;50.788;7.318;2022-07-25T00:04:47;10.55;;;5.80;;
43124;SDS011;49182;50.788;7.318;2022-07-25T00:07:15;7.80;;;5.43;;
43124;SDS011;49182;50.788;7.318;2022-07-25T00:09:42;8.00;;;5.55;;
43124;SDS011;49182;50.788;7.318;2022-07-25T00:12:11;9.02;;;6.13;;
43124;SDS011;49182;50.788;7.318;2022-07-25T00:14:38;10.13;;;6.00;;
43124;SDS011;49182;50.788;7.318;2022-07-25T00:17:04;8.13;;;5.90;;
43124;SDS011;49182;50.788;7.318;2022-07-25T00:19:31;8.93;;;5.88;;
43124;SDS011;49182;50.788;7.318;2022-07-25T00:21:58;11.57;;;5.78;;
43124;SDS011;49182;50.788;7.318;2022-07-25T00:24:26;9.77;;;6.00;;
43124;SDS011;49182;50.788;7.318;2022-07-25T00:26:52;8.68;;;5.80;;
43124;SDS011;49182;50.788;7.318;2022-07-25T00:29:19;9.57;;;5.75;;
43124;SDS011;49182;50.788;7.318;2022-07-25T00:31:46;9.55;;;6.15;;
43124;SDS011;49182;50.788;7.318;2022-07-25T00:34:13;7.68;;;5.60;;
43124;SDS011;49182;50.788;7.318;2022-07-25T00:36:39;8.82;;;6.13;;
43124;SDS011;49182;50.788;7.318;2022-07-25T00:39:06;9.57;;;6.07;;
43124;SDS011;49182;50.788;7.318;2022-07-25T00:41:34;10.80;;;6.03;;
43124;SDS011;49182;50.788;7.318;2022-07-25T00:44:01;9.20;;;6.20;;
43124;SDS011;49182;50.788;7.318;2022-07-25T00:46:28;10.15;;;5.75;;
43124;SDS011;49182;50.788;7.318;2022-07-25T00:48:56;16.25;;;6.30;;
43124;SDS011;49182;50.788;7.318;2022-07-25T00:51:23;9.23;;;5.82;;
43124;SDS011;49182;50.788;7.318;2022-07-25T00:53:50;10.38;;;6.10;;
43124;SDS011;49182;50.788;7.318;2022-07-25T00:56:17;10.30;;;5.78;;
43124;SDS011;49182;50.788;7.318;2022-07-25T00:58:45;10.90;;;6.13;;
43124;SDS011;49182;50.788;7.318;2022-07-25T01:01:12;9.38;;;6.32;;
43124;SDS011;49182;50.788;7.318;2022-07-25T01:03:39;9.52;;;5.97;;
43124;SDS011;49182;50.788;7.318;2022-07-25T01:06:05;10.02;;;5.97;;
43124;SDS011;49182;50.788;7.318;2022-07-25T01:08:33;10.88;;;5.85;;
43124;SDS011;49182;50.788;7.318;2022-07-25T01:11:00;8.80;;;6.00;;
43124;SDS011;49182;50.788;7.318;2022-07-25T01:13:27;7.95;;;6.15;;
43124;SDS011;49182;50.788;7.318;2022-07-25T01:15:58;11.65;;;5.95;;
43124;SDS011;49182;50.788;7.318;2022-07-25T01:18:25;8.50;;;6.10;;
43124;SDS011;49182;50.788;7.318;2022-07-25T01:20:53;11.15;;;6.78;;
43124;SDS011;49182;50.788;7.318;2022-07-25T01:23:19;9.70;;;5.93;;
43124;SDS011;49182;50.788;7.318;2022-07-25T01:25:46;9.27;;;6.00;;
43124;SDS011;49182;50.788;7.318;2022-07-25T01:28:13;12.02;;;6.07;;
43124;SDS011;49182;50.788;7.318;2022-07-25T01:30:40;9.32;;;6.40;;
43124;SDS011;49182;50.788;7.318;2022-07-25T01:33:07;9.18;;;5.97;;
43124;SDS011;49182;50.788;7.318;2022-07-25T01:35:33;11.52;;;6.25;;
43124;SDS011;49182;50.788;7.318;2022-07-25T01:38:08;8.93;;;5.95;;
43124;SDS011;49182;50.788;7.318;2022-07-25T01:40:35;10.43;;;6.05;;
43124;SDS011;49182;50.788;7.318;2022-07-25T01:43:01;10.07;;;6.60;;
43124;SDS011;49182;50.788;7.318;2022-07-25T01:45:28;8.93;;;5.93;;
43124;SDS011;49182;50.788;7.318;2022-07-25T01:47:55;7.45;;;5.70;;
43124;SDS011;49182;50.788;7.318;2022-07-25T01:50:22;12.95;;;6.65;;
43124;SDS011;49182;50.788;7.318;2022-07-25T01:52:49;8.18;;;5.72;;
43124;SDS011;49182;50.788;7.318;2022-07-25T01:55:17;9.57;;;6.15;;
43124;SDS011;49182;50.788;7.318;2022-07-25T01:57:44;12.02;;;6.82;;
43124;SDS011;49182;50.788;7.318;2022-07-25T02:00:15;11.77;;;6.28;;
43124;SDS011;49182;50.788;7.318;2022-07-25T02:02:43;11.85;;;5.80;;
43124;SDS011;49182;50.788;7.318;2022-07-25T02:05:11;11.80;;;5.82;;
43124;SDS011;49182;50.788;7.318;2022-07-25T02:07:39;12.15;;;6.35;;
43124;SDS011;49182;50.788;7.318;2022-07-25T02:10:06;12.02;;;6.03;;
43124;SDS011;49182;50.788;7.318;2022-07-25T02:12:35;11.07;;;6.65;;
43124;SDS011;49182;50.788;7.318;2022-07-25T02:15:02;8.52;;;6.07;;
43124;SDS011;49182;50.788;7.318;2022-07-25T02:17:29;8.75;;;6.13;;
43124;SDS011;49182;50.788;7.318;2022-07-25T02:19:55;9.95;;;6.35;;
43124;SDS011;49182;50.788;7.318;2022-07-25T02:22:22;8.80;;;6.43;;
43124;SDS011;49182;50.788;7.318;2022-07-25T02:24:49;10.25;;;6.28;;
43124;SDS011;49182;50.788;7.318;2022-07-25T02:27:15;9.23;;;6.10;;
43124;SDS011;49182;50.788;7.318;2022-07-25T02:29:43;11.57;;;6.07;;
43124;SDS011;49182;50.788;7.318;2022-07-25T02:32:10;8.93;;;5.80;;
43124;SDS011;49182;50.788;7.318;2022-07-25T02:34:36;10.30;;;6.15;;
43124;SDS011;49182;50.788;7.318;2022-07-25T02:37:03;8.43;;;6.22;;
43124;SDS011;49182;50.788;7.318;2022-07-25T02:39:30;9.65;;;6.38;;
43124;SDS011;49182;50.788;7.318;2022-07-25T02:41:56;8.57;;;5.97;;
43124;SDS011;49182;50.788;7.318;2022-07-25T02:44:23;11.85;;;6.35;;
43124;SDS011;49182;50.788;7.318;2022-07-25T02:46:51;11.23;;;6.30;;
43124;SDS011;49182;50.788;7.318;2022-07-25T02:49:18;10.60;;;6.47;;
43124;SDS011;49182;50.788;7.318;2022-07-25T02:51:44;8.38;;;5.97;;
43124;SDS011;49182;50.788;7.318;2022-07-25T02:54:11;9.00;;;6.28;;
43124;SDS011;49182;50.788;7.318;2022-07-25T02:56:38;10.15;;;6.55;;
43124;SDS011;49182;50.788;7.318;2022-07-25T02:59:05;12.13;;;6.32;;
43124;SDS011;49182;50.788;7.318;2022-07-25T03:01:32;10.05;;;6.85;;
43124;SDS011;49182;50.788;7.318;2022-07-25T03:04:00;9.68;;;6.85;;
43124;SDS011;49182;50.788;7.318;2022-07-25T03:06:26;10.77;;;6.22;;
43124;SDS011;49182;50.788;7.318;2022-07-25T03:08:53;11.27;;;6.57;;
43124;SDS011;49182;50.788;7.318;2022-07-25T03:11:20;10.48;;;6.45;;
43124;SDS011;49182;50.788;7.318;2022-07-25T03:13:46;9.57;;;6.55;;
43124;SDS011;49182;50.788;7.318;2022-07-25T03:16:13;10.02;;;6.57;;
43124;SDS011;49182;50.788;7.318;2022-07-25T03:18:40;11.43;;;6.55;;
43124;SDS011;49182;50.788;7.318;2022-07-25T03:21:08;10.65;;;6.93;;
43124;SDS011;49182;50.788;7.318;2022-07-25T03:23:35;9.90;;;6.53;;
43124;SDS011;49182;50.788;7.318;2022-07-25T03:26:01;14.25;;;6.55;;
43124;SDS011;49182;50.788;7.318;2022-07-25T03:28:28;9.68;;;6.90;;
43124;SDS011;49182;50.788;7.318;2022-07-25T03:30:55;13.10;;;6.90;;
43124;SDS011;49182;50.788;7.318;2022-07-25T03:33:21;10.20;;;6.68;;
43124;SDS011;49182;50.788;7.318;2022-07-25T03:35:48;12.45;;;6.63;;
43124;SDS011;49182;50.788;7.318;2022-07-25T03:38:16;9.75;;;6.57;;
43124;SDS011;49182;50.788;7.318;2022-07-25T03:40:43;11.93;;;6.50;;
43124;SDS011;49182;50.788;7.318;2022-07-25T03:43:09;11.55;;;7.03;;
43124;SDS011;49182;50.788;7.318;2022-07-25T03:45:36;9.27;;;6.38;;
43124;SDS011;49182;50.788;7.318;2022-07-25T03:48:03;11.27;;;6.60;;
43124;SDS011;49182;50.788;7.318;2022-07-25T03:50:29;10.10;;;6.85;;
43124;SDS011;49182;50.788;7.318;2022-07-25T03:52:56;9.70;;;6.28;;
43124;SDS011;49182;50.788;7.318;2022-07-25T03:55:24;9.50;;;6.82;;
43124;SDS011;49182;50.788;7.318;2022-07-25T03:57:51;9.93;;;6.53;;
43124;SDS011;49182;50.788;7.318;2022-07-25T04:00:17;13.05;;;6.57;;
43124;SDS011;49182;50.788;7.318;2022-07-25T04:02:45;9.40;;;6.45;;
43124;SDS011;49182;50.788;7.318;2022-07-25T04:05:11;8.93;;;6.15;;
43124;SDS011;49182;50.788;7.318;2022-07-25T04:07:38;11.27;;;6.47;;
43124;SDS011;49182;50.788;7.318;2022-07-25T04:10:05;10.82;;;6.45;;
43124;SDS011;49182;50.788;7.318;2022-07-25T04:12:34;9.15;;;6.53;;
43124;SDS011;49182;50.788;7.318;2022-07-25T04:15:01;9.63;;;6.70;;
43124;SDS011;49182;50.788;7.318;2022-07-25T04:17:28;10.23;;;6.35;;
43124;SDS011;49182;50.788;7.318;2022-07-25T04:19:55;11.77;;;6.93;;
43124;SDS011;49182;50.788;7.318;2022-07-25T04:22:22;10.48;;;6.22;;
43124;SDS011;49182;50.788;7.318;2022-07-25T04:24:49;10.18;;;6.85;;
43124;SDS011;49182;50.788;7.318;2022-07-25T04:27:15;11.48;;;6.82;;
43124;SDS011;49182;50.788;7.318;2022-07-25T04:29:43;10.25;;;6.13;;
43124;SDS011;49182;50.788;7.318;2022-07-25T04:32:10;9.45;;;6.80;;
43124;SDS011;49182;50.788;7.318;2022-07-25T04:34:36;10.90;;;6.22;;
43124;SDS011;49182;50.788;7.318;2022-07-25T04:37:03;11.38;;;6.28;;
43124;SDS011;49182;50.788;7.318;2022-07-25T04:39:30;9.75;;;6.43;;
43124;SDS011;49182;50.788;7.318;2022-07-25T04:41:57;11.07;;;6.57;;
43124;SDS011;49182;50.788;7.318;2022-07-25T04:44:23;12.50;;;5.75;;
43124;SDS011;49182;50.788;7.318;2022-07-25T04:46:51;8.88;;;5.53;;
43124;SDS011;49182;50.788;7.318;2022-07-25T04:49:18;10.07;;;5.57;;
43124;SDS011;49182;50.788;7.318;2022-07-25T04:51:45;8.88;;;6.00;;
43124;SDS011;49182;50.788;7.318;2022-07-25T04:54:11;9.95;;;6.20;;
43124;SDS011;49182;50.788;7.318;2022-07-25T04:56:38;9.73;;;6.00;;
43124;SDS011;49182;50.788;7.318;2022-07-25T04:59:05;13.48;;;5.68;;
43124;SDS011;49182;50.788;7.318;2022-07-25T05:01:32;8.10;;;5.78;;
43124;SDS011;49182;50.788;7.318;2022-07-25T05:04:00;8.48;;;5.75;;
43124;SDS011;49182;50.788;7.318;2022-07-25T05:06:27;9.98;;;5.32;;
43124;SDS011;49182;50.788;7.318;2022-07-25T05:08:54;7.85;;;5.80;;
43124;SDS011;49182;50.788;7.318;2022-07-25T05:11:20;9.60;;;5.75;;
43124;SDS011;49182;50.788;7.318;2022-07-25T05:13:47;11.57;;;5.95;;
43124;SDS011;49182;50.788;7.318;2022-07-25T05:16:14;9.90;;;5.50;;
43124;SDS011;49182;50.788;7.318;2022-07-25T05:18:40;29.08;;;7.28;;
43124;SDS011;49182;50.788;7.318;2022-07-25T05:21:10;8.13;;;6.15;;
43124;SDS011;49182;50.788;7.318;2022-07-25T05:23:36;10.68;;;5.30;;
43124;SDS011;49182;50.788;7.318;2022-07-25T05:26:03;9.45;;;5.55;;
43124;SDS011;49182;50.788;7.318;2022-07-25T05:28:30;8.57;;;5.90;;
43124;SDS011;49182;50.788;7.318;2022-07-25T05:30:57;10.05;;;5.38;;
43124;SDS011;49182;50.788;7.318;2022-07-25T05:33:23;7.93;;;5.45;;
43124;SDS011;49182;50.788;7.318;2022-07-25T05:35:50;7.63;;;5.40;;
43124;SDS011;49182;50.788;7.318;2022-07-25T05:38:19;9.32;;;6.30;;
43124;SDS011;49182;50.788;7.318;2022-07-25T05:40:46;9.32;;;5.03;;
43124;SDS011;49182;50.788;7.318;2022-07-25T05:43:13;8.25;;;5.40;;
43124;SDS011;49182;50.788;7.318;2022-07-25T05:45:39;8.90;;;6.13;;
43124;SDS011;49182;50.788;7.318;2022-07-25T05:48:06;6.78;;;4.60;;
43124;SDS011;49182;50.788;7.318;2022-07-25T05:50:33;8.60;;;5.43;;
43124;SDS011;49182;50.788;7.318;2022-07-25T05:53:01;7.88;;;5.20;;
43124;SDS011;49182;50.788;7.318;2022-07-25T05:55:29;7.70;;;5.15;;
43124;SDS011;49182;50.788;7.318;2022-07-25T05:57:56;9.88;;;5.75;;
43124;SDS011;49182;50.788;7.318;2022-07-25T06:00:23;8.23;;;5.70;;
43124;SDS011;49182;50.788;7.318;2022-07-25T06:02:49;8.27;;;5.63;;
43124;SDS011;49182;50.788;7.318;2022-07-25T06:05:16;7.45;;;5.32;;
43124;SDS011;49182;50.788;7.318;2022-07-25T06:07:43;6.72;;;4.90;;
43124;SDS011;49182;50.788;7.318;2022-07-25T06:10:10;6.63;;;4.78;;
43124;SDS011;49182;50.788;7.318;2022-07-25T06:12:38;8.05;;;5.45;;
43124;SDS011;49182;50.788;7.318;2022-07-25T06:15:05;8.30;;;5.10;;
43124;SDS011;49182;50.788;7.318;2022-07-25T06:17:37;7.95;;;5.43;;
43124;SDS011;49182;50.788;7.318;2022-07-25T06:20:05;8.88;;;4.82;;
43124;SDS011;49182;50.788;7.318;2022-07-25T06:22:32;7.43;;;5.10;;
43124;SDS011;49182;50.788;7.318;2022-07-25T06:25:00;9.23;;;5.07;;
43124;SDS011;49182;50.788;7.318;2022-07-25T06:27:27;8.45;;;5.35;;
43124;SDS011;49182;50.788;7.318;2022-07-25T06:29:56;10.32;;;5.00;;
43124;SDS011;49182;50.788;7.318;2022-07-25T06:32:23;6.78;;;5.07;;
43124;SDS011;49182;50.788;7.318;2022-07-25T06:34:49;7.95;;;4.72;;
43124;SDS011;49182;50.788;7.318;2022-07-25T06:37:16;7.22;;;4.53;;
43124;SDS011;49182;50.788;7.318;2022-07-25T06:39:43;8.75;;;4.78;;
43124;SDS011;49182;50.788;7.318;2022-07-25T06:42:11;6.63;;;4.90;;
43124;SDS011;49182;50.788;7.318;2022-07-25T06:44:38;8.00;;;4.65;;
43124;SDS011;49182;50.788;7.318;2022-07-25T06:47:06;7.13;;;5.00;;
43124;SDS011;49182;50.788;7.318;2022-07-25T06:49:33;7.88;;;4.90;;
43124;SDS011;49182;50.788;7.318;2022-07-25T06:51:59;8.52;;;4.75;;
43124;SDS011;49182;50.788;7.318;2022-07-25T06:54:26;7.90;;;5.25;;
43124;SDS011;49182;50.788;7.318;2022-07-25T06:56:52;8.73;;;4.93;;
43124;SDS011;49182;50.788;7.318;2022-07-25T06:59:19;8.07;;;4.68;;
43124;SDS011;49182;50.788;7.318;2022-07-25T07:01:46;7.53;;;4.50;;
43124;SDS011;49182;50.788;7.318;2022-07-25T07:04:18;6.20;;;4.90;;
43124;SDS011;49182;50.788;7.318;2022-07-25T07:06:45;8.20;;;4.90;;
43124;SDS011;49182;50.788;7.318;2022-07-25T07:09:11;11.48;;;5.28;;
43124;SDS011;49182;50.788;7.318;2022-07-25T07:11:38;7.38;;;4.38;;
43124;SDS011;49182;50.788;7.318;2022-07-25T07:14:05;8.40;;;5.45;;
43124;SDS011;49182;50.788;7.318;2022-07-25T07:16:32;6.65;;;4.88;;
43124;SDS011;49182;50.788;7.318;2022-07-25T07:18:59;6.57;;;4.65;;
43124;SDS011;49182;50.788;7.318;2022-07-25T07:21:27;8.73;;;4.88;;
43124;SDS011;49182;50.788;7.318;2022-07-25T07:23:54;9.77;;;4.82;;
43124;SDS011;49182;50.788;7.318;2022-07-25T07:26:22;6.63;;;4.75;;
43124;SDS011;49182;50.788;7.318;2022-07-25T07:28:48;8.27;;;4.68;;
43124;SDS011;49182;50.788;7.318;2022-07-25T07:31:15;7.50;;;4.63;;
43124;SDS011;49182;50.788;7.318;2022-07-25T07:33:43;7.82;;;5.22;;
43124;SDS011;49182;50.788;7.318;2022-07-25T07:36:10;7.00;;;4.50;;
43124;SDS011;49182;50.788;7.318;2022-07-25T07:38:38;8.68;;;6.10;;
43124;SDS011;49182;50.788;7.318;2022-07-25T07:41:04;6.72;;;4.72;;
43124;SDS011;49182;50.788;7.318;2022-07-25T07:43:31;8.70;;;4.88;;
43124;SDS011;49182;50.788;7.318;2022-07-25T07:45:58;6.03;;;4.68;;
43124;SDS011;49182;50.788;7.318;2022-07-25T07:48:25;7.57;;;4.45;;
43124;SDS011;49182;50.788;7.318;2022-07-25T07:50:51;12.73;;;4.50;;
43124;SDS011;49182;50.788;7.318;2022-07-25T07:53:18;6.88;;;4.40;;
43124;SDS011;49182;50.788;7.318;2022-07-25T07:55:46;7.25;;;4.65;;
43124;SDS011;49182;50.788;7.318;2022-07-25T07:58:13;9.30;;;4.95;;
43124;SDS011;49182;50.788;7.318;2022-07-25T08:00:42;6.60;;;4.20;;
43124;SDS011;49182;50.788;7.318;2022-07-25T08:03:10;10.52;;;4.60;;
43124;SDS011;49182;50.788;7.318;2022-07-25T08:05:37;7.30;;;4.60;;
43124;SDS011;49182;50.788;7.318;2022-07-25T08:08:06;7.93;;;4.60;;
43124;SDS011;49182;50.788;7.318;2022-07-25T08:10:35;6.93;;;4.90;;
43124;SDS011;49182;50.788;7.318;2022-07-25T08:13:10;7.35;;;4.60;;
43124;SDS011;49182;50.788;7.318;2022-07-25T08:15:38;7.25;;;4.72;;
43124;SDS011;49182;50.788;7.318;2022-07-25T08:18:06;10.32;;;4.38;;
43124;SDS011;49182;50.788;7.318;2022-07-25T08:20:43;6.53;;;4.75;;
43124;SDS011;49182;50.788;7.318;2022-07-25T08:23:10;8.18;;;5.13;;
43124;SDS011;49182;50.788;7.318;2022-07-25T08:25:37;7.25;;;4.40;;
43124;SDS011;49182;50.788;7.318;2022-07-25T08:28:05;7.03;;;4.20;;
43124;SDS011;49182;50.788;7.318;2022-07-25T08:30:33;6.40;;;4.25;;
43124;SDS011;49182;50.788;7.318;2022-07-25T08:33:01;6.15;;;4.63;;
43124;SDS011;49182;50.788;7.318;2022-07-25T08:35:29;10.95;;;4.38;;
43124;SDS011;49182;50.788;7.318;2022-07-25T08:37:56;9.48;;;4.22;;
43124;SDS011;49182;50.788;7.318;2022-07-25T08:40:24;6.65;;;4.22;;
43124;SDS011;49182;50.788;7.318;2022-07-25T08:42:53;6.35;;;4.22;;
43124;SDS011;49182;50.788;7.318;2022-07-25T08:45:22;7.20;;;4.28;;
43124;SDS011;49182;50.788;7.318;2022-07-25T08:47:49;7.45;;;4.35;;
43124;SDS011;49182;50.788;7.318;2022-07-25T08:50:17;5.72;;;4.28;;
43124;SDS011;49182;50.788;7.318;2022-07-25T08:52:46;5.80;;;4.18;;
43124;SDS011;49182;50.788;7.318;2022-07-25T08:55:15;7.18;;;4.05;;
43124;SDS011;49182;50.788;7.318;2022-07-25T08:57:43;7.90;;;4.13;;
43124;SDS011;49182;50.788;7.318;2022-07-25T09:00:11;5.35;;;3.95;;
43124;SDS011;49182;50.788;7.318;2022-07-25T09:02:42;6.57;;;4.30;;
43124;SDS011;49182;50.788;7.318;2022-07-25T09:05:09;7.40;;;4.30;;
43124;SDS011;49182;50.788;7.318;2022-07-25T09:07:36;8.48;;;4.20;;
43124;SDS011;49182;50.788;7.318;2022-07-25T09:10:11;6.32;;;3.88;;
43124;SDS011;49182;50.788;7.318;2022-07-25T09:12:39;10.05;;;4.85;;
43124;SDS011;49182;50.788;7.318;2022-07-25T09:15:07;7.80;;;4.35;;
43124;SDS011;49182;50.788;7.318;2022-07-25T09:17:36;6.68;;;3.97;;
43124;SDS011;49182;50.788;7.318;2022-07-25T09:20:06;7.18;;;4.75;;
43124;SDS011;49182;50.788;7.318;2022-07-25T09:22:41;8.57;;;4.10;;
43124;SDS011;49182;50.788;7.318;2022-07-25T09:25:18;14.52;;;4.72;;
43124;SDS011;49182;50.788;7.318;2022-07-25T09:27:46;9.32;;;4.45;;
43124;SDS011;49182;50.788;7.318;2022-07-25T09:30:13;10.43;;;4.70;;
43124;SDS011;49182;50.788;7.318;2022-07-25T09:32:40;7.18;;;4.32;;
43124;SDS011;49182;50.788;7.318;2022-07-25T09:35:08;5.82;;;4.18;;
43124;SDS011;49182;50.788;7.318;2022-07-25T09:37:35;6.68;;;4.20;;
43124;SDS011;49182;50.788;7.318;2022-07-25T09:40:10;6.78;;;4.40;;
43124;SDS011;49182;50.788;7.318;2022-07-25T09:42:37;6.78;;;4.57;;
43124;SDS011;49182;50.788;7.318;2022-07-25T09:45:05;6.45;;;3.88;;
43124;SDS011;49182;50.788;7.318;2022-07-25T09:47:34;7.20;;;4.07;;
43124;SDS011;49182;50.788;7.318;2022-07-25T09:50:01;9.90;;;4.40;;
43124;SDS011;49182;50.788;7.318;2022-07-25T09:52:30;5.65;;;3.72;;
43124;SDS011;49182;50.788;7.318;2022-07-25T09:54:57;7.40;;;4.97;;
43124;SDS011;49182;50.788;7.318;2022-07-25T09:57:23;5.93;;;4.25;;
43124;SDS011;49182;50.788;7.318;2022-07-25T09:59:50;5.45;;;3.97;;
43124;SDS011;49182;50.788;7.318;2022-07-25T10:02:20;8.27;;;4.30;;
43124;SDS011;49182;50.788;7.318;2022-07-25T10:04:57;6.10;;;4.13;;
43124;SDS011;49182;50.788;7.318;2022-07-25T10:07:34;7.78;;;4.35;;
43124;SDS011;49182;50.788;7.318;2022-07-25T10:10:04;7.18;;;4.38;;
43124;SDS011;49182;50.788;7.318;2022-07-25T10:12:31;5.90;;;4.00;;
43124;SDS011;49182;50.788;7.318;2022-07-25T10:15:06;5.90;;;4.50;;
43124;SDS011;49182;50.788;7.318;2022-07-25T10:17:34;6.53;;;4.40;;
43124;SDS011;49182;50.788;7.318;2022-07-25T10:20:03;5.53;;;4.10;;
43124;SDS011;49182;50.788;7.318;2022-07-25T10:22:36;7.80;;;4.45;;
43124;SDS011;49182;50.788;7.318;2022-07-25T10:25:22;7.97;;;4.45;;
43124;SDS011;49182;50.788;7.318;2022-07-25T10:27:50;7.30;;;4.97;;
43124;SDS011;49182;50.788;7.318;2022-07-25T10:30:19;8.00;;;5.38;;
43124;SDS011;49182;50.788;7.318;2022-07-25T10:32:50;6.60;;;4.57;;
43124;SDS011;49182;50.788;7.318;2022-07-25T10:35:22;7.18;;;4.40;;
43124;SDS011;49182;50.788;7.318;2022-07-25T10:37:51;7.13;;;4.55;;
43124;SDS011;49182;50.788;7.318;2022-07-25T10:40:25;8.75;;;4.00;;
43124;SDS011;49182;50.788;7.318;2022-07-25T10:43:00;6.35;;;4.32;;
43124;SDS011;49182;50.788;7.318;2022-07-25T10:45:37;8.55;;;4.50;;
43124;SDS011;49182;50.788;7.318;2022-07-25T10:48:07;8.70;;;4.47;;
43124;SDS011;49182;50.788;7.318;2022-07-25T10:50:45;7.43;;;4.63;;
43124;SDS011;49182;50.788;7.318;2022-07-25T10:53:33;9.05;;;4.40;;
43124;SDS011;49182;50.788;7.318;2022-07-25T10:56:04;7.65;;;4.30;;
43124;SDS011;49182;50.788;7.318;2022-07-25T10:58:42;5.25;;;4.07;;
43124;SDS011;49182;50.788;7.318;2022-07-25T11:01:11;8.60;;;4.25;;
43124;SDS011;49182;50.788;7.318;2022-07-25T11:03:38;7.95;;;4.35;;
43124;SDS011;49182;50.788;7.318;2022-07-25T11:06:06;9.75;;;4.72;;
43124;SDS011;49182;50.788;7.318;2022-07-25T11:08:34;6.35;;;4.40;;
43124;SDS011;49182;50.788;7.318;2022-07-25T11:11:00;6.88;;;4.35;;
43124;SDS011;49182;50.788;7.318;2022-07-25T11:13:27;7.20;;;4.32;;
43124;SDS011;49182;50.788;7.318;2022-07-25T11:15:57;7.32;;;4.68;;
43124;SDS011;49182;50.788;7.318;2022-07-25T11:18:30;10.55;;;4.38;;
43124;SDS011;49182;50.788;7.318;2022-07-25T11:20:58;7.63;;;4.32;;
43124;SDS011;49182;50.788;7.318;2022-07-25T11:23:31;7.30;;;4.30;;
43124;SDS011;49182;50.788;7.318;2022-07-25T11:26:06;6.80;;;4.60;;
43124;SDS011;49182;50.788;7.318;2022-07-25T11:28:43;7.65;;;4.13;;
43124;SDS011;49182;50.788;7.318;2022-07-25T11:31:12;8.70;;;4.93;;
43124;SDS011;49182;50.788;7.318;2022-07-25T11:33:39;8.40;;;4.65;;
43124;SDS011;49182;50.788;7.318;2022-07-25T11:36:08;6.25;;;4.38;;
43124;SDS011;49182;50.788;7.318;2022-07-25T11:38:35;9.68;;;4.63;;
43124;SDS011;49182;50.788;7.318;2022-07-25T11:41:02;7.18;;;4.47;;
43124;SDS011;49182;50.788;7.318;2022-07-25T11:43:31;9.13;;;4.88;;
43124;SDS011;49182;50.788;7.318;2022-07-25T11:45:59;7.82;;;4.95;;
43124;SDS011;49182;50.788;7.318;2022-07-25T11:48:33;8.82;;;4.65;;
43124;SDS011;49182;50.788;7.318;2022-07-25T11:51:09;8.45;;;4.85;;
43124;SDS011;49182;50.788;7.318;2022-07-25T11:53:44;6.90;;;4.90;;
43124;SDS011;49182;50.788;7.318;2022-07-25T11:56:12;9.07;;;4.95;;
43124;SDS011;49182;50.788;7.318;2022-07-25T11:59:01;9.48;;;5.43;;
43124;SDS011;49182;50.788;7.318;2022-07-25T12:01:32;7.30;;;5.05;;
43124;SDS011;49182;50.788;7.318;2022-07-25T12:04:09;9.40;;;5.03;;
43124;SDS011;49182;50.788;7.318;2022-07-25T12:06:37;7.45;;;4.40;;
43124;SDS011;49182;50.788;7.318;2022-07-25T12:09:10;9.48;;;5.13;;
43124;SDS011;49182;50.788;7.318;2022-07-25T12:11:45;6.78;;;4.93;;
43124;SDS011;49182;50.788;7.318;2022-07-25T12:14:14;8.77;;;5.15;;
43124;SDS011;49182;50.788;7.318;2022-07-25T12:16:41;8.25;;;5.03;;
43124;SDS011;49182;50.788;7.318;2022-07-25T12:19:08;9.48;;;4.90;;
43124;SDS011;49182;50.788;7.318;2022-07-25T12:21:42;10.93;;;4.72;;
43124;SDS011;49182;50.788;7.318;2022-07-25T12:24:09;12.00;;;5.18;;
43124;SDS011;49182;50.788;7.318;2022-07-25T12:26:36;9.50;;;4.80;;
43124;SDS011;49182;50.788;7.318;2022-07-25T12:29:03;8.82;;;5.25;;
43124;SDS011;49182;50.788;7.318;2022-07-25T12:31:31;9.07;;;5.15;;
43124;SDS011;49182;50.788;7.318;2022-07-25T12:33:58;9.35;;;5.00;;
43124;SDS011;49182;50.788;7.318;2022-07-25T12:36:25;9.18;;;4.53;;
43124;SDS011;49182;50.788;7.318;2022-07-25T12:38:51;9.75;;;5.57;;
43124;SDS011;49182;50.788;7.318;2022-07-25T12:41:18;7.85;;;4.72;;
43124;SDS011;49182;50.788;7.318;2022-07-25T12:43:45;6.80;;;4.75;;
43124;SDS011;49182;50.788;7.318;2022-07-25T12:46:12;8.60;;;4.88;;
43124;SDS011;49182;50.788;7.318;2022-07-25T12:48:40;9.48;;;4.82;;
43124;SDS011;49182;50.788;7.318;2022-07-25T12:51:07;8.55;;;4.75;;
43124;SDS011;49182;50.788;7.318;2022-07-25T12:53:33;7.70;;;5.05;;
43124;SDS011;49182;50.788;7.318;2022-07-25T12:56:07;7.40;;;4.22;;
43124;SDS011;49182;50.788;7.318;2022-07-25T12:58:33;12.93;;;4.80;;
43124;SDS011;49182;50.788;7.318;2022-07-25T13:01:01;7.85;;;4.85;;
43124;SDS011;49182;50.788;7.318;2022-07-25T13:03:29;9.43;;;4.82;;
43124;SDS011;49182;50.788;7.318;2022-07-25T13:05:57;8.27;;;4.70;;
43124;SDS011;49182;50.788;7.318;2022-07-25T13:08:24;8.77;;;4.40;;
43124;SDS011;49182;50.788;7.318;2022-07-25T13:10:51;10.48;;;4.30;;
43124;SDS011;49182;50.788;7.318;2022-07-25T13:13:17;7.22;;;4.10;;
43124;SDS011;49182;50.788;7.318;2022-07-25T13:15:44;9.15;;;4.00;;
43124;SDS011;49182;50.788;7.318;2022-07-25T13:18:11;8.55;;;3.83;;
43124;SDS011;49182;50.788;7.318;2022-07-25T13:20:37;5.82;;;3.72;;
43124;SDS011;49182;50.788;7.318;2022-07-25T13:23:06;7.10;;;3.78;;
43124;SDS011;49182;50.788;7.318;2022-07-25T13:25:32;6.88;;;3.55;;
43124;SDS011;49182;50.788;7.318;2022-07-25T13:27:59;8.65;;;4.13;;
43124;SDS011;49182;50.788;7.318;2022-07-25T13:30:28;6.45;;;3.33;;
43124;SDS011;49182;50.788;7.318;2022-07-25T13:32:55;5.22;;;3.30;;
43124;SDS011;49182;50.788;7.318;2022-07-25T13:35:21;6.35;;;3.20;;
43124;SDS011;49182;50.788;7.318;2022-07-25T13:37:58;8.05;;;3.42;;
43124;SDS011;49182;50.788;7.318;2022-07-25T13:40:26;4.93;;;2.88;;
43124;SDS011;49182;50.788;7.318;2022-07-25T13:42:52;6.80;;;3.45;;
43124;SDS011;49182;50.788;7.318;2022-07-25T13:45:19;6.47;;;3.13;;
43124;SDS011;49182;50.788;7.318;2022-07-25T13:47:46;5.97;;;2.95;;
43124;SDS011;49182;50.788;7.318;2022-07-25T13:50:31;8.38;;;3.40;;
43124;SDS011;49182;50.788;7.318;2022-07-25T13:52:58;8.32;;;3.40;;
43124;SDS011;49182;50.788;7.318;2022-07-25T13:55:27;8.38;;;3.75;;
43124;SDS011;49182;50.788;7.318;2022-07-25T13:57:54;8.48;;;2.80;;
43124;SDS011;49182;50.788;7.318;2022-07-25T14:00:21;5.32;;;2.92;;
43124;SDS011;49182;50.788;7.318;2022-07-25T14:02:48;6.22;;;3.30;;
43124;SDS011;49182;50.788;7.318;2022-07-25T14:05:15;7.10;;;2.92;;
43124;SDS011;49182;50.788;7.318;2022-07-25T14:07:41;5.65;;;3.10;;
43124;SDS011;49182;50.788;7.318;2022-07-25T14:10:08;6.80;;;3.28;;
43124;SDS011;49182;50.788;7.318;2022-07-25T14:12:37;8.65;;;3.20;;
43124;SDS011;49182;50.788;7.318;2022-07-25T14:15:04;11.90;;;3.40;;
43124;SDS011;49182;50.788;7.318;2022-07-25T14:17:32;7.53;;;2.92;;
43124;SDS011;49182;50.788;7.318;2022-07-25T14:19:58;9.43;;;2.72;;
43124;SDS011;49182;50.788;7.318;2022-07-25T14:22:25;7.57;;;2.80;;
43124;SDS011;49182;50.788;7.318;2022-07-25T14:24:52;5.82;;;2.50;;
43124;SDS011;49182;50.788;7.318;2022-07-25T14:27:18;5.10;;;2.13;;
43124;SDS011;49182;50.788;7.318;2022-07-25T14:29:46;6.97;;;2.22;;
43124;SDS011;49182;50.788;7.318;2022-07-25T14:32:13;5.75;;;2.13;;
43124;SDS011;49182;50.788;7.318;2022-07-25T14:34:40;9.52;;;2.60;;
43124;SDS011;49182;50.788;7.318;2022-07-25T14:37:07;5.18;;;2.05;;
43124;SDS011;49182;50.788;7.318;2022-07-25T14:39:33;5.45;;;2.42;;
43124;SDS011;49182;50.788;7.318;2022-07-25T14:42:00;7.78;;;1.88;;
43124;SDS011;49182;50.788;7.318;2022-07-25T14:44:27;7.93;;;2.53;;
43124;SDS011;49182;50.788;7.318;2022-07-25T14:46:55;7.05;;;1.80;;
43124;SDS011;49182;50.788;7.318;2022-07-25T14:49:22;8.38;;;1.80;;
43124;SDS011;49182;50.788;7.318;2022-07-25T14:51:49;7.45;;;2.30;;